sensor_id;sensor_type;location;lat;lon;timestamp;P1;durP1;ratioP1;P2;durP2;ratioP2
9465;SDS011;4771;48.726;9.006;2023-11-21T00:00:33;4.50;;;2.00;;
9465;SDS011;4771;48.726;9.006;2023-11-21T00:03:00;3.63;;;1.85;;
9465;SDS011;4771;48.726;9.006;2023-11-21T00:05:28;2.78;;;1.50;;
9465;SDS011;4771;48.726;9.006;2023-11-21T00:07:55;4.68;;;1.75;;
9465;SDS011;4771;48.726;9.006;2023-11-21T00:10:22;5.72;;;1.80;;
9465;SDS011;4771;48.726;9.006;2023-11-21T00:12:49;3.77;;;1.50;;
9465;SDS011;4771;48.726;9.006;2023-11-21T00:15:16;5.40;;;1.93;;
9465;SDS011;4771;48.726;9.006;2023-11-21T00:17:43;2.92;;;1.50;;
9465;SDS011;4771;48.726;9.006;2023-11-21T00:20:11;8.23;;;2.20;;
9465;SDS011;4771;48.726;9.006;2023-11-21T00:22:40;6.38;;;1.92;;
9465;SDS011;4771;48.726;9.006;2023-11-21T00:25:07;5.68;;;1.75;;
9465;SDS011;4771;48.726;9.006;2023-11-21T00:27:35;4.22;;;1.52;;
9465;SDS011;4771;48.726;9.006;2023-11-21T00:30:02;5.63;;;2.10;;
9465;SDS011;4771;48.726;9.006;2023-11-21T00:32:31;3.83;;;1.80;;
9465;SDS011;4771;48.726;9.006;2023-11-21T00:34:57;3.17;;;1.70;;
9465;SDS011;4771;48.726;9.006;2023-11-21T00:37:25;3.77;;;1.93;;
9465;SDS011;4771;48.726;9.006;2023-11-21T00:39:53;4.63;;;1.83;;
9465;SDS011;4771;48.726;9.006;2023-11-21T00:42:21;7.03;;;2.13;;
9465;SDS011;4771;48.726;9.006;2023-11-21T00:44:47;7.38;;;2.10;;
9465;SDS011;4771;48.726;9.006;2023-11-21T00:47:14;3.23;;;1.60;;
9465;SDS011;4771;48.726;9.006;2023-11-21T00:49:41;5.17;;;1.90;;
9465;SDS011;4771;48.726;9.006;2023-11-21T00:52:08;5.23;;;1.63;;
9465;SDS011;4771;48.726;9.006;2023-11-21T00:54:35;8.07;;;2.03;;
9465;SDS011;4771;48.726;9.006;2023-11-21T00:57:03;5.07;;;1.70;;
9465;SDS011;4771;48.726;9.006;2023-11-21T00:59:30;3.80;;;1.70;;
9465;SDS011;4771;48.726;9.006;2023-11-21T01:01:57;5.17;;;1.77;;
9465;SDS011;4771;48.726;9.006;2023-11-21T01:04:26;6.00;;;1.60;;
9465;SDS011;4771;48.726;9.006;2023-11-21T01:06:53;4.38;;;1.58;;
9465;SDS011;4771;48.726;9.006;2023-11-21T01:09:20;2.88;;;1.50;;
9465;SDS011;4771;48.726;9.006;2023-11-21T01:11:47;4.93;;;1.70;;
9465;SDS011;4771;48.726;9.006;2023-11-21T01:14:15;5.43;;;2.00;;
9465;SDS011;4771;48.726;9.006;2023-11-21T01:16:42;2.47;;;1.20;;
9465;SDS011;4771;48.726;9.006;2023-11-21T01:19:09;6.43;;;1.87;;
9465;SDS011;4771;48.726;9.006;2023-11-21T01:21:36;3.40;;;1.47;;
9465;SDS011;4771;48.726;9.006;2023-11-21T01:24:03;3.37;;;1.50;;
9465;SDS011;4771;48.726;9.006;2023-11-21T01:26:32;3.33;;;1.60;;
9465;SDS011;4771;48.726;9.006;2023-11-21T01:28:59;3.23;;;1.50;;
9465;SDS011;4771;48.726;9.006;2023-11-21T01:31:27;2.93;;;1.33;;
9465;SDS011;4771;48.726;9.006;2023-11-21T01:33:56;3.10;;;1.42;;
9465;SDS011;4771;48.726;9.006;2023-11-21T01:36:24;5.10;;;1.70;;
9465;SDS011;4771;48.726;9.006;2023-11-21T01:38:57;3.90;;;1.70;;
9465;SDS011;4771;48.726;9.006;2023-11-21T01:41:25;4.75;;;1.40;;
9465;SDS011;4771;48.726;9.006;2023-11-21T01:43:53;3.40;;;1.60;;
9465;SDS011;4771;48.726;9.006;2023-11-21T01:46:20;3.87;;;1.50;;
9465;SDS011;4771;48.726;9.006;2023-11-21T01:48:49;6.17;;;1.70;;
9465;SDS011;4771;48.726;9.006;2023-11-21T01:51:16;4.53;;;1.60;;
9465;SDS011;4771;48.726;9.006;2023-11-21T01:53:44;2.93;;;1.50;;
9465;SDS011;4771;48.726;9.006;2023-11-21T01:56:11;3.40;;;1.37;;
9465;SDS011;4771;48.726;9.006;2023-11-21T01:58:39;2.40;;;1.50;;
9465;SDS011;4771;48.726;9.006;2023-11-21T02:01:06;2.33;;;1.30;;
9465;SDS011;4771;48.726;9.006;2023-11-21T02:03:33;2.60;;;1.33;;
9465;SDS011;4771;48.726;9.006;2023-11-21T02:06:02;3.93;;;1.30;;
9465;SDS011;4771;48.726;9.006;2023-11-21T02:08:29;2.83;;;1.40;;
9465;SDS011;4771;48.726;9.006;2023-11-21T02:10:56;3.27;;;1.43;;
9465;SDS011;4771;48.726;9.006;2023-11-21T02:13:23;2.43;;;1.17;;
9465;SDS011;4771;48.726;9.006;2023-11-21T02:15:50;2.73;;;1.23;;
9465;SDS011;4771;48.726;9.006;2023-11-21T02:18:19;4.10;;;1.63;;
9465;SDS011;4771;48.726;9.006;2023-11-21T02:20:47;3.43;;;1.20;;
9465;SDS011;4771;48.726;9.006;2023-11-21T02:23:15;4.20;;;1.00;;
9465;SDS011;4771;48.726;9.006;2023-11-21T02:25:43;1.90;;;1.20;;
9465;SDS011;4771;48.726;9.006;2023-11-21T02:28:10;2.33;;;1.10;;
9465;SDS011;4771;48.726;9.006;2023-11-21T02:30:37;1.73;;;1.10;;
9465;SDS011;4771;48.726;9.006;2023-11-21T02:33:06;2.50;;;1.40;;
9465;SDS011;4771;48.726;9.006;2023-11-21T02:35:33;4.20;;;1.20;;
9465;SDS011;4771;48.726;9.006;2023-11-21T02:38:00;1.90;;;1.00;;
9465;SDS011;4771;48.726;9.006;2023-11-21T02:40:28;4.33;;;1.10;;
9465;SDS011;4771;48.726;9.006;2023-11-21T02:42:55;2.20;;;1.10;;
9465;SDS011;4771;48.726;9.006;2023-11-21T02:45:24;3.53;;;1.20;;
9465;SDS011;4771;48.726;9.006;2023-11-21T02:47:51;3.60;;;1.20;;
9465;SDS011;4771;48.726;9.006;2023-11-21T02:50:21;3.10;;;1.30;;
9465;SDS011;4771;48.726;9.006;2023-11-21T02:52:48;4.73;;;1.13;;
9465;SDS011;4771;48.726;9.006;2023-11-21T02:55:16;2.43;;;1.10;;
9465;SDS011;4771;48.726;9.006;2023-11-21T02:57:44;2.60;;;1.07;;
9465;SDS011;4771;48.726;9.006;2023-11-21T03:00:11;3.30;;;1.13;;
9465;SDS011;4771;48.726;9.006;2023-11-21T03:02:40;1.93;;;1.30;;
9465;SDS011;4771;48.726;9.006;2023-11-21T03:05:07;3.33;;;1.20;;
9465;SDS011;4771;48.726;9.006;2023-11-21T03:07:35;3.43;;;1.20;;
9465;SDS011;4771;48.726;9.006;2023-11-21T03:10:02;2.70;;;1.30;;
9465;SDS011;4771;48.726;9.006;2023-11-21T03:12:30;1.13;;;1.00;;
9465;SDS011;4771;48.726;9.006;2023-11-21T03:14:58;2.20;;;1.03;;
9465;SDS011;4771;48.726;9.006;2023-11-21T03:17:26;2.30;;;1.00;;
9465;SDS011;4771;48.726;9.006;2023-11-21T03:19:54;1.80;;;1.07;;
9465;SDS011;4771;48.726;9.006;2023-11-21T03:22:22;1.47;;;1.00;;
9465;SDS011;4771;48.726;9.006;2023-11-21T03:24:49;2.67;;;0.90;;
9465;SDS011;4771;48.726;9.006;2023-11-21T03:27:16;1.90;;;1.00;;
9465;SDS011;4771;48.726;9.006;2023-11-21T03:29:43;1.23;;;0.97;;
9465;SDS011;4771;48.726;9.006;2023-11-21T03:32:11;3.03;;;1.20;;
9465;SDS011;4771;48.726;9.006;2023-11-21T03:34:52;1.53;;;1.20;;
9465;SDS011;4771;48.726;9.006;2023-11-21T03:37:20;2.20;;;1.10;;
9465;SDS011;4771;48.726;9.006;2023-11-21T03:39:47;1.10;;;1.00;;
9465;SDS011;4771;48.726;9.006;2023-11-21T03:42:14;3.03;;;1.10;;
9465;SDS011;4771;48.726;9.006;2023-11-21T03:44:41;4.13;;;1.17;;
9465;SDS011;4771;48.726;9.006;2023-11-21T03:47:08;2.20;;;1.10;;
9465;SDS011;4771;48.726;9.006;2023-11-21T03:49:36;1.47;;;1.10;;
9465;SDS011;4771;48.726;9.006;2023-11-21T03:52:03;0.85;;;0.85;;
9465;SDS011;4771;48.726;9.006;2023-11-21T03:54:32;2.63;;;1.10;;
9465;SDS011;4771;48.726;9.006;2023-11-21T03:56:59;2.20;;;0.90;;
9465;SDS011;4771;48.726;9.006;2023-11-21T03:59:26;6.27;;;1.53;;
9465;SDS011;4771;48.726;9.006;2023-11-21T04:01:54;9.43;;;1.40;;
9465;SDS011;4771;48.726;9.006;2023-11-21T04:04:22;2.63;;;1.00;;
9465;SDS011;4771;48.726;9.006;2023-11-21T04:06:50;2.03;;;1.00;;
9465;SDS011;4771;48.726;9.006;2023-11-21T04:09:18;2.80;;;1.00;;
9465;SDS011;4771;48.726;9.006;2023-11-21T04:11:45;1.83;;;1.17;;
9465;SDS011;4771;48.726;9.006;2023-11-21T04:14:12;3.87;;;1.10;;
9465;SDS011;4771;48.726;9.006;2023-11-21T04:16:39;1.23;;;1.07;;
9465;SDS011;4771;48.726;9.006;2023-11-21T04:19:07;1.47;;;0.90;;
9465;SDS011;4771;48.726;9.006;2023-11-21T04:21:35;2.92;;;0.90;;
9465;SDS011;4771;48.726;9.006;2023-11-21T04:24:04;2.03;;;1.00;;
9465;SDS011;4771;48.726;9.006;2023-11-21T04:26:31;2.43;;;1.13;;
9465;SDS011;4771;48.726;9.006;2023-11-21T04:28:58;1.60;;;0.97;;
9465;SDS011;4771;48.726;9.006;2023-11-21T04:31:25;1.90;;;1.10;;
9465;SDS011;4771;48.726;9.006;2023-11-21T04:33:52;1.00;;;0.90;;
9465;SDS011;4771;48.726;9.006;2023-11-21T04:36:19;2.27;;;1.17;;
9465;SDS011;4771;48.726;9.006;2023-11-21T04:38:46;2.80;;;1.37;;
9465;SDS011;4771;48.726;9.006;2023-11-21T04:41:14;1.50;;;1.10;;
9465;SDS011;4771;48.726;9.006;2023-11-21T04:43:41;2.23;;;0.90;;
9465;SDS011;4771;48.726;9.006;2023-11-21T04:46:08;0.97;;;0.97;;
9465;SDS011;4771;48.726;9.006;2023-11-21T04:48:35;1.17;;;1.00;;
9465;SDS011;4771;48.726;9.006;2023-11-21T04:51:02;1.63;;;0.90;;
9465;SDS011;4771;48.726;9.006;2023-11-21T04:53:30;3.70;;;0.90;;
9465;SDS011;4771;48.726;9.006;2023-11-21T04:55:57;5.53;;;1.00;;
9465;SDS011;4771;48.726;9.006;2023-11-21T04:58:25;2.60;;;0.90;;
9465;SDS011;4771;48.726;9.006;2023-11-21T05:00:52;1.17;;;0.90;;
9465;SDS011;4771;48.726;9.006;2023-11-21T05:03:19;0.70;;;0.70;;
9465;SDS011;4771;48.726;9.006;2023-11-21T05:05:45;1.10;;;1.00;;
9465;SDS011;4771;48.726;9.006;2023-11-21T05:08:12;1.47;;;1.00;;
9465;SDS011;4771;48.726;9.006;2023-11-21T05:10:39;1.67;;;1.10;;
9465;SDS011;4771;48.726;9.006;2023-11-21T05:13:06;3.13;;;1.10;;
9465;SDS011;4771;48.726;9.006;2023-11-21T05:15:36;1.43;;;0.93;;
9465;SDS011;4771;48.726;9.006;2023-11-21T05:18:04;2.83;;;1.10;;
9465;SDS011;4771;48.726;9.006;2023-11-21T05:20:31;2.00;;;1.00;;
9465;SDS011;4771;48.726;9.006;2023-11-21T05:22:58;2.07;;;1.00;;
9465;SDS011;4771;48.726;9.006;2023-11-21T05:25:25;9.70;;;4.87;;
9465;SDS011;4771;48.726;9.006;2023-11-21T05:27:52;3.07;;;2.63;;
9465;SDS011;4771;48.726;9.006;2023-11-21T05:30:19;2.23;;;1.57;;
9465;SDS011;4771;48.726;9.006;2023-11-21T05:32:48;18.93;;;2.40;;
9465;SDS011;4771;48.726;9.006;2023-11-21T05:35:15;0.80;;;0.80;;
9465;SDS011;4771;48.726;9.006;2023-11-21T05:37:42;2.33;;;1.10;;
9465;SDS011;4771;48.726;9.006;2023-11-21T05:40:10;2.50;;;0.90;;
9465;SDS011;4771;48.726;9.006;2023-11-21T05:42:38;1.10;;;1.00;;
9465;SDS011;4771;48.726;9.006;2023-11-21T05:45:06;3.00;;;1.07;;
9465;SDS011;4771;48.726;9.006;2023-11-21T05:47:36;0.87;;;0.80;;
9465;SDS011;4771;48.726;9.006;2023-11-21T05:50:06;1.03;;;0.93;;
9465;SDS011;4771;48.726;9.006;2023-11-21T05:52:35;2.60;;;1.10;;
9465;SDS011;4771;48.726;9.006;2023-11-21T05:55:02;1.20;;;1.10;;
9465;SDS011;4771;48.726;9.006;2023-11-21T05:57:32;3.03;;;1.70;;
9465;SDS011;4771;48.726;9.006;2023-11-21T05:59:59;1.37;;;1.27;;
9465;SDS011;4771;48.726;9.006;2023-11-21T06:02:28;1.60;;;1.30;;
9465;SDS011;4771;48.726;9.006;2023-11-21T06:04:55;3.10;;;1.43;;
9465;SDS011;4771;48.726;9.006;2023-11-21T06:07:23;1.70;;;1.30;;
9465;SDS011;4771;48.726;9.006;2023-11-21T06:09:50;1.17;;;1.07;;
9465;SDS011;4771;48.726;9.006;2023-11-21T06:12:17;3.00;;;1.10;;
9465;SDS011;4771;48.726;9.006;2023-11-21T06:14:45;1.70;;;1.10;;
9465;SDS011;4771;48.726;9.006;2023-11-21T06:17:13;2.93;;;0.90;;
9465;SDS011;4771;48.726;9.006;2023-11-21T06:19:40;2.53;;;1.20;;
9465;SDS011;4771;48.726;9.006;2023-11-21T06:22:06;1.93;;;1.40;;
9465;SDS011;4771;48.726;9.006;2023-11-21T06:24:35;1.67;;;1.30;;
9465;SDS011;4771;48.726;9.006;2023-11-21T06:27:03;1.83;;;1.20;;
9465;SDS011;4771;48.726;9.006;2023-11-21T06:29:30;3.33;;;1.40;;
9465;SDS011;4771;48.726;9.006;2023-11-21T06:31:57;1.77;;;1.27;;
9465;SDS011;4771;48.726;9.006;2023-11-21T06:34:24;2.03;;;1.37;;
9465;SDS011;4771;48.726;9.006;2023-11-21T06:36:52;2.00;;;1.47;;
9465;SDS011;4771;48.726;9.006;2023-11-21T06:39:19;1.60;;;1.30;;
9465;SDS011;4771;48.726;9.006;2023-11-21T06:41:49;3.23;;;1.13;;
9465;SDS011;4771;48.726;9.006;2023-11-21T06:44:15;2.60;;;1.40;;
9465;SDS011;4771;48.726;9.006;2023-11-21T06:46:42;2.03;;;1.50;;
9465;SDS011;4771;48.726;9.006;2023-11-21T06:49:09;2.70;;;1.37;;
9465;SDS011;4771;48.726;9.006;2023-11-21T06:51:37;2.00;;;1.23;;
9465;SDS011;4771;48.726;9.006;2023-11-21T06:54:04;2.17;;;1.10;;
9465;SDS011;4771;48.726;9.006;2023-11-21T06:56:32;1.23;;;1.13;;
9465;SDS011;4771;48.726;9.006;2023-11-21T06:59:00;1.80;;;1.30;;
9465;SDS011;4771;48.726;9.006;2023-11-21T07:01:28;2.73;;;1.30;;
9465;SDS011;4771;48.726;9.006;2023-11-21T07:03:55;1.43;;;1.20;;
9465;SDS011;4771;48.726;9.006;2023-11-21T07:06:21;2.13;;;1.23;;
9465;SDS011;4771;48.726;9.006;2023-11-21T07:08:48;2.08;;;1.40;;
9465;SDS011;4771;48.726;9.006;2023-11-21T07:11:15;2.13;;;1.57;;
9465;SDS011;4771;48.726;9.006;2023-11-21T07:13:42;2.40;;;1.30;;
9465;SDS011;4771;48.726;9.006;2023-11-21T07:16:10;1.43;;;1.30;;
9465;SDS011;4771;48.726;9.006;2023-11-21T07:18:37;4.10;;;1.63;;
9465;SDS011;4771;48.726;9.006;2023-11-21T07:21:05;2.10;;;1.57;;
9465;SDS011;4771;48.726;9.006;2023-11-21T07:23:33;2.03;;;1.33;;
9465;SDS011;4771;48.726;9.006;2023-11-21T07:26:01;2.20;;;1.30;;
9465;SDS011;4771;48.726;9.006;2023-11-21T07:28:28;2.70;;;1.50;;
9465;SDS011;4771;48.726;9.006;2023-11-21T07:30:56;2.30;;;1.53;;
9465;SDS011;4771;48.726;9.006;2023-11-21T07:33:26;2.33;;;1.70;;
9465;SDS011;4771;48.726;9.006;2023-11-21T07:35:52;3.07;;;1.60;;
9465;SDS011;4771;48.726;9.006;2023-11-21T07:38:19;3.00;;;1.30;;
9465;SDS011;4771;48.726;9.006;2023-11-21T07:40:46;1.97;;;1.50;;
9465;SDS011;4771;48.726;9.006;2023-11-21T07:43:13;3.70;;;1.57;;
9465;SDS011;4771;48.726;9.006;2023-11-21T07:45:40;4.30;;;1.90;;
9465;SDS011;4771;48.726;9.006;2023-11-21T07:48:07;3.37;;;1.70;;
9465;SDS011;4771;48.726;9.006;2023-11-21T07:50:35;3.57;;;1.70;;
9465;SDS011;4771;48.726;9.006;2023-11-21T07:53:02;4.03;;;2.10;;
9465;SDS011;4771;48.726;9.006;2023-11-21T07:55:30;2.13;;;1.60;;
9465;SDS011;4771;48.726;9.006;2023-11-21T07:57:58;2.57;;;1.73;;
9465;SDS011;4771;48.726;9.006;2023-11-21T08:00:25;2.40;;;1.70;;
9465;SDS011;4771;48.726;9.006;2023-11-21T08:02:55;3.80;;;1.70;;
9465;SDS011;4771;48.726;9.006;2023-11-21T08:05:22;2.47;;;1.70;;
9465;SDS011;4771;48.726;9.006;2023-11-21T08:07:51;1.60;;;1.50;;
9465;SDS011;4771;48.726;9.006;2023-11-21T08:10:17;2.05;;;1.67;;
9465;SDS011;4771;48.726;9.006;2023-11-21T08:12:46;2.60;;;1.53;;
9465;SDS011;4771;48.726;9.006;2023-11-21T08:15:13;2.90;;;1.63;;
9465;SDS011;4771;48.726;9.006;2023-11-21T08:17:40;3.40;;;2.50;;
9465;SDS011;4771;48.726;9.006;2023-11-21T08:20:07;4.20;;;2.10;;
9465;SDS011;4771;48.726;9.006;2023-11-21T08:22:37;1.97;;;1.43;;
9465;SDS011;4771;48.726;9.006;2023-11-21T08:25:07;3.43;;;1.43;;
9465;SDS011;4771;48.726;9.006;2023-11-21T08:27:35;2.00;;;1.40;;
9465;SDS011;4771;48.726;9.006;2023-11-21T08:30:02;2.10;;;1.57;;
9465;SDS011;4771;48.726;9.006;2023-11-21T08:32:29;1.47;;;1.20;;
9465;SDS011;4771;48.726;9.006;2023-11-21T08:34:57;2.80;;;1.73;;
9465;SDS011;4771;48.726;9.006;2023-11-21T08:37:24;2.73;;;1.80;;
9465;SDS011;4771;48.726;9.006;2023-11-21T08:39:52;3.30;;;1.77;;
9465;SDS011;4771;48.726;9.006;2023-11-21T08:42:20;2.13;;;1.40;;
9465;SDS011;4771;48.726;9.006;2023-11-21T08:44:48;1.47;;;1.20;;
9465;SDS011;4771;48.726;9.006;2023-11-21T08:47:15;1.20;;;1.02;;
9465;SDS011;4771;48.726;9.006;2023-11-21T08:49:41;2.27;;;1.53;;
9465;SDS011;4771;48.726;9.006;2023-11-21T08:52:08;2.37;;;1.30;;
9465;SDS011;4771;48.726;9.006;2023-11-21T08:54:35;1.77;;;1.10;;
9465;SDS011;4771;48.726;9.006;2023-11-21T08:57:02;2.23;;;1.10;;
9465;SDS011;4771;48.726;9.006;2023-11-21T08:59:31;6.60;;;1.80;;
9465;SDS011;4771;48.726;9.006;2023-11-21T09:01:58;2.10;;;1.60;;
9465;SDS011;4771;48.726;9.006;2023-11-21T09:04:25;2.07;;;1.40;;
9465;SDS011;4771;48.726;9.006;2023-11-21T09:06:52;2.87;;;1.60;;
9465;SDS011;4771;48.726;9.006;2023-11-21T09:09:19;1.97;;;1.40;;
9465;SDS011;4771;48.726;9.006;2023-11-21T09:11:45;1.73;;;1.40;;
9465;SDS011;4771;48.726;9.006;2023-11-21T09:14:14;3.20;;;1.57;;
9465;SDS011;4771;48.726;9.006;2023-11-21T09:16:43;1.80;;;1.43;;
9465;SDS011;4771;48.726;9.006;2023-11-21T09:19:10;2.20;;;1.40;;
9465;SDS011;4771;48.726;9.006;2023-11-21T09:21:39;3.10;;;1.50;;
9465;SDS011;4771;48.726;9.006;2023-11-21T09:24:06;1.83;;;1.50;;
9465;SDS011;4771;48.726;9.006;2023-11-21T09:26:34;2.30;;;1.40;;
9465;SDS011;4771;48.726;9.006;2023-11-21T09:29:01;2.87;;;1.60;;
9465;SDS011;4771;48.726;9.006;2023-11-21T09:31:28;3.87;;;2.30;;
9465;SDS011;4771;48.726;9.006;2023-11-21T09:33:57;4.57;;;1.80;;
9465;SDS011;4771;48.726;9.006;2023-11-21T09:36:24;3.87;;;2.13;;
9465;SDS011;4771;48.726;9.006;2023-11-21T09:38:53;2.38;;;2.03;;
9465;SDS011;4771;48.726;9.006;2023-11-21T09:41:34;2.60;;;1.60;;
9465;SDS011;4771;48.726;9.006;2023-11-21T09:44:06;3.93;;;1.70;;
9465;SDS011;4771;48.726;9.006;2023-11-21T09:46:39;2.17;;;1.40;;
9465;SDS011;4771;48.726;9.006;2023-11-21T09:49:10;1.60;;;1.45;;
9465;SDS011;4771;48.726;9.006;2023-11-21T09:51:38;3.35;;;1.40;;
9465;SDS011;4771;48.726;9.006;2023-11-21T09:54:08;1.50;;;1.40;;
9465;SDS011;4771;48.726;9.006;2023-11-21T09:56:36;2.15;;;1.50;;
9465;SDS011;4771;48.726;9.006;2023-11-21T09:59:04;2.33;;;1.30;;
9465;SDS011;4771;48.726;9.006;2023-11-21T10:01:35;3.20;;;1.80;;
9465;SDS011;4771;48.726;9.006;2023-11-21T10:04:04;3.97;;;1.70;;
9465;SDS011;4771;48.726;9.006;2023-11-21T10:06:37;1.83;;;1.60;;
9465;SDS011;4771;48.726;9.006;2023-11-21T10:09:06;4.05;;;2.15;;
9465;SDS011;4771;48.726;9.006;2023-11-21T10:11:36;2.97;;;2.10;;
9465;SDS011;4771;48.726;9.006;2023-11-21T10:14:06;2.00;;;1.80;;
9465;SDS011;4771;48.726;9.006;2023-11-21T10:16:37;1.70;;;1.60;;
9465;SDS011;4771;48.726;9.006;2023-11-21T10:19:05;2.20;;;1.70;;
9465;SDS011;4771;48.726;9.006;2023-11-21T10:21:35;2.27;;;2.00;;
9465;SDS011;4771;48.726;9.006;2023-11-21T10:24:05;2.80;;;1.73;;
9465;SDS011;4771;48.726;9.006;2023-11-21T10:26:32;2.47;;;1.63;;
9465;SDS011;4771;48.726;9.006;2023-11-21T10:29:00;2.55;;;1.67;;
9465;SDS011;4771;48.726;9.006;2023-11-21T10:31:29;2.40;;;1.70;;
9465;SDS011;4771;48.726;9.006;2023-11-21T10:33:57;1.63;;;1.50;;
9465;SDS011;4771;48.726;9.006;2023-11-21T10:36:40;2.97;;;2.00;;
9465;SDS011;4771;48.726;9.006;2023-11-21T10:39:08;2.00;;;1.80;;
9465;SDS011;4771;48.726;9.006;2023-11-21T10:41:35;3.03;;;1.67;;
9465;SDS011;4771;48.726;9.006;2023-11-21T10:44:03;4.33;;;1.80;;
9465;SDS011;4771;48.726;9.006;2023-11-21T10:46:32;2.17;;;1.70;;
9465;SDS011;4771;48.726;9.006;2023-11-21T10:49:00;2.20;;;1.90;;
9465;SDS011;4771;48.726;9.006;2023-11-21T10:51:27;1.83;;;1.67;;
9465;SDS011;4771;48.726;9.006;2023-11-21T10:53:54;1.70;;;1.60;;
9465;SDS011;4771;48.726;9.006;2023-11-21T10:56:23;4.10;;;2.17;;
9465;SDS011;4771;48.726;9.006;2023-11-21T10:58:51;3.20;;;1.87;;
9465;SDS011;4771;48.726;9.006;2023-11-21T11:01:19;5.80;;;2.03;;
9465;SDS011;4771;48.726;9.006;2023-11-21T11:03:48;3.05;;;2.03;;
9465;SDS011;4771;48.726;9.006;2023-11-21T11:06:19;3.53;;;1.95;;
9465;SDS011;4771;48.726;9.006;2023-11-21T11:08:47;2.10;;;1.90;;
9465;SDS011;4771;48.726;9.006;2023-11-21T11:11:15;3.80;;;2.20;;
9465;SDS011;4771;48.726;9.006;2023-11-21T11:13:45;2.40;;;1.90;;
9465;SDS011;4771;48.726;9.006;2023-11-21T11:16:11;2.30;;;1.60;;
9465;SDS011;4771;48.726;9.006;2023-11-21T11:18:42;4.17;;;1.83;;
9465;SDS011;4771;48.726;9.006;2023-11-21T11:21:11;2.65;;;2.00;;
9465;SDS011;4771;48.726;9.006;2023-11-21T11:23:58;1.92;;;1.55;;
9465;SDS011;4771;48.726;9.006;2023-11-21T11:26:37;2.07;;;1.53;;
9465;SDS011;4771;48.726;9.006;2023-11-21T11:29:13;2.30;;;1.37;;
9465;SDS011;4771;48.726;9.006;2023-11-21T11:31:50;1.67;;;1.27;;
9465;SDS011;4771;48.726;9.006;2023-11-21T11:34:28;1.87;;;1.30;;
9465;SDS011;4771;48.726;9.006;2023-11-21T11:36:59;1.50;;;1.40;;
9465;SDS011;4771;48.726;9.006;2023-11-21T11:39:29;1.73;;;1.60;;
9465;SDS011;4771;48.726;9.006;2023-11-21T11:41:56;3.00;;;1.65;;
9465;SDS011;4771;48.726;9.006;2023-11-21T11:47:24;1.80;;;1.30;;
9465;SDS011;4771;48.726;9.006;2023-11-21T11:50:00;1.98;;;1.00;;
9465;SDS011;4771;48.726;9.006;2023-11-21T11:52:35;1.10;;;1.00;;
9465;SDS011;4771;48.726;9.006;2023-11-21T11:55:05;1.57;;;1.30;;
9465;SDS011;4771;48.726;9.006;2023-11-21T11:57:35;1.48;;;1.38;;
9465;SDS011;4771;48.726;9.006;2023-11-21T12:00:08;1.58;;;1.30;;
9465;SDS011;4771;48.726;9.006;2023-11-21T12:02:37;2.30;;;1.30;;
9465;SDS011;4771;48.726;9.006;2023-11-21T12:05:08;1.20;;;1.10;;
9465;SDS011;4771;48.726;9.006;2023-11-21T12:10:23;1.70;;;1.40;;
9465;SDS011;4771;48.726;9.006;2023-11-21T12:12:51;1.33;;;1.20;;
9465;SDS011;4771;48.726;9.006;2023-11-21T12:15:20;1.40;;;1.30;;
9465;SDS011;4771;48.726;9.006;2023-11-21T12:17:48;1.65;;;1.55;;
9465;SDS011;4771;48.726;9.006;2023-11-21T12:20:16;2.00;;;1.60;;
9465;SDS011;4771;48.726;9.006;2023-11-21T12:22:45;3.80;;;1.70;;
9465;SDS011;4771;48.726;9.006;2023-11-21T12:25:16;3.10;;;1.77;;
9465;SDS011;4771;48.726;9.006;2023-11-21T12:27:45;1.93;;;1.73;;
9465;SDS011;4771;48.726;9.006;2023-11-21T12:30:14;2.33;;;1.75;;
9465;SDS011;4771;48.726;9.006;2023-11-21T12:32:44;1.80;;;1.70;;
9465;SDS011;4771;48.726;9.006;2023-11-21T12:35:13;13.18;;;9.38;;
9465;SDS011;4771;48.726;9.006;2023-11-21T12:37:42;24.55;;;20.35;;
9465;SDS011;4771;48.726;9.006;2023-11-21T12:40:10;6.95;;;6.22;;
9465;SDS011;4771;48.726;9.006;2023-11-21T12:42:40;20.10;;;16.58;;
9465;SDS011;4771;48.726;9.006;2023-11-21T12:45:18;30.75;;;25.95;;
9465;SDS011;4771;48.726;9.006;2023-11-21T12:47:48;35.88;;;26.27;;
9465;SDS011;4771;48.726;9.006;2023-11-21T12:50:18;5.85;;;4.05;;
9465;SDS011;4771;48.726;9.006;2023-11-21T12:52:48;13.32;;;10.52;;
9465;SDS011;4771;48.726;9.006;2023-11-21T12:55:17;22.35;;;16.02;;
9465;SDS011;4771;48.726;9.006;2023-11-21T12:57:47;11.10;;;8.45;;
9465;SDS011;4771;48.726;9.006;2023-11-21T13:00:15;8.45;;;6.55;;
9465;SDS011;4771;48.726;9.006;2023-11-21T13:02:54;28.63;;;21.38;;
9465;SDS011;4771;48.726;9.006;2023-11-21T13:05:23;5.85;;;5.25;;
9465;SDS011;4771;48.726;9.006;2023-11-21T13:07:51;14.18;;;10.85;;
9465;SDS011;4771;48.726;9.006;2023-11-21T13:10:19;5.25;;;4.75;;
9465;SDS011;4771;48.726;9.006;2023-11-21T13:12:51;3.33;;;3.03;;
9465;SDS011;4771;48.726;9.006;2023-11-21T13:15:19;5.80;;;4.88;;
9465;SDS011;4771;48.726;9.006;2023-11-21T13:17:46;3.90;;;3.50;;
9465;SDS011;4771;48.726;9.006;2023-11-21T13:20:16;3.03;;;2.80;;
9465;SDS011;4771;48.726;9.006;2023-11-21T13:22:48;3.60;;;3.30;;
9465;SDS011;4771;48.726;9.006;2023-11-21T13:25:16;5.47;;;4.75;;
9465;SDS011;4771;48.726;9.006;2023-11-21T13:27:44;3.45;;;3.15;;
9465;SDS011;4771;48.726;9.006;2023-11-21T13:30:12;2.90;;;2.70;;
9465;SDS011;4771;48.726;9.006;2023-11-21T13:32:44;3.83;;;3.45;;
9465;SDS011;4771;48.726;9.006;2023-11-21T13:35:12;7.47;;;5.18;;
9465;SDS011;4771;48.726;9.006;2023-11-21T13:37:50;11.18;;;9.55;;
9465;SDS011;4771;48.726;9.006;2023-11-21T13:40:20;9.82;;;7.18;;
9465;SDS011;4771;48.726;9.006;2023-11-21T13:42:50;7.43;;;6.37;;
9465;SDS011;4771;48.726;9.006;2023-11-21T13:45:20;2.38;;;1.95;;
9465;SDS011;4771;48.726;9.006;2023-11-21T13:47:48;1.83;;;1.73;;
9465;SDS011;4771;48.726;9.006;2023-11-21T13:50:17;1.60;;;1.50;;
9465;SDS011;4771;48.726;9.006;2023-11-21T13:52:49;7.97;;;7.17;;
9465;SDS011;4771;48.726;9.006;2023-11-21T13:55:18;4.05;;;3.60;;
9465;SDS011;4771;48.726;9.006;2023-11-21T13:57:46;3.63;;;3.33;;
9465;SDS011;4771;48.726;9.006;2023-11-21T14:00:16;2.50;;;2.13;;
9465;SDS011;4771;48.726;9.006;2023-11-21T14:03:06;2.17;;;1.98;;
9465;SDS011;4771;48.726;9.006;2023-11-21T14:05:42;2.13;;;1.92;;
9465;SDS011;4771;48.726;9.006;2023-11-21T14:08:12;1.20;;;1.10;;
9465;SDS011;4771;48.726;9.006;2023-11-21T14:10:42;2.00;;;1.80;;
9465;SDS011;4771;48.726;9.006;2023-11-21T14:13:10;2.80;;;2.53;;
9465;SDS011;4771;48.726;9.006;2023-11-21T14:15:38;2.60;;;2.40;;
9465;SDS011;4771;48.726;9.006;2023-11-21T14:18:07;7.25;;;6.57;;
9465;SDS011;4771;48.726;9.006;2023-11-21T14:20:36;1.77;;;1.60;;
9465;SDS011;4771;48.726;9.006;2023-11-21T14:23:05;3.03;;;2.38;;
9465;SDS011;4771;48.726;9.006;2023-11-21T14:25:33;8.15;;;7.35;;
9465;SDS011;4771;48.726;9.006;2023-11-21T14:28:02;1.50;;;1.40;;
9465;SDS011;4771;48.726;9.006;2023-11-21T14:30:31;19.27;;;16.70;;
9465;SDS011;4771;48.726;9.006;2023-11-21T14:33:00;8.10;;;7.30;;
9465;SDS011;4771;48.726;9.006;2023-11-21T14:35:28;5.37;;;3.53;;
9465;SDS011;4771;48.726;9.006;2023-11-21T14:37:57;3.03;;;2.00;;
9465;SDS011;4771;48.726;9.006;2023-11-21T14:40:25;7.10;;;5.47;;
9465;SDS011;4771;48.726;9.006;2023-11-21T14:42:59;4.15;;;3.40;;
9465;SDS011;4771;48.726;9.006;2023-11-21T14:45:26;3.80;;;3.30;;
9465;SDS011;4771;48.726;9.006;2023-11-21T14:47:54;3.50;;;3.20;;
9465;SDS011;4771;48.726;9.006;2023-11-21T14:50:31;4.30;;;2.88;;
9465;SDS011;4771;48.726;9.006;2023-11-21T14:53:21;4.68;;;4.18;;
9465;SDS011;4771;48.726;9.006;2023-11-21T14:56:08;3.77;;;3.40;;
9465;SDS011;4771;48.726;9.006;2023-11-21T14:58:36;6.32;;;5.68;;
9465;SDS011;4771;48.726;9.006;2023-11-21T15:01:04;7.78;;;6.05;;
9465;SDS011;4771;48.726;9.006;2023-11-21T15:03:31;6.43;;;5.75;;
9465;SDS011;4771;48.726;9.006;2023-11-21T15:06:13;3.13;;;2.60;;
9465;SDS011;4771;48.726;9.006;2023-11-21T15:08:51;3.50;;;1.87;;
9465;SDS011;4771;48.726;9.006;2023-11-21T15:11:42;10.10;;;8.43;;
9465;SDS011;4771;48.726;9.006;2023-11-21T15:14:09;5.65;;;4.78;;
9465;SDS011;4771;48.726;9.006;2023-11-21T15:16:45;8.00;;;6.72;;
9465;SDS011;4771;48.726;9.006;2023-11-21T15:19:16;5.10;;;3.63;;
9465;SDS011;4771;48.726;9.006;2023-11-21T15:21:49;2.73;;;1.83;;
9465;SDS011;4771;48.726;9.006;2023-11-21T15:24:16;2.27;;;1.97;;
9465;SDS011;4771;48.726;9.006;2023-11-21T15:26:43;3.77;;;1.90;;
9465;SDS011;4771;48.726;9.006;2023-11-21T15:29:11;7.70;;;7.00;;